sensor_id;sensor_type;location;lat;lon;timestamp;P1;durP1;ratioP1;P2;durP2;ratioP2
40122;SDS011;25832;45.490;4.912;2023-09-12T00:00:57;5.25;;;2.40;;
40122;SDS011;25832;45.490;4.912;2023-09-12T00:03:30;5.10;;;2.70;;
40122;SDS011;25832;45.490;4.912;2023-09-12T00:05:56;3.55;;;2.80;;
40122;SDS011;25832;45.490;4.912;2023-09-12T00:08:23;6.10;;;2.72;;
40122;SDS011;25832;45.490;4.912;2023-09-12T00:11:08;5.03;;;2.45;;
40122;SDS011;25832;45.490;4.912;2023-09-12T00:13:36;6.13;;;2.67;;
40122;SDS011;25832;45.490;4.912;2023-09-12T00:16:03;4.60;;;2.90;;
40122;SDS011;25832;45.490;4.912;2023-09-12T00:18:30;5.43;;;3.22;;
40122;SDS011;25832;45.490;4.912;2023-09-12T00:20:56;3.28;;;2.45;;
40122;SDS011;25832;45.490;4.912;2023-09-12T00:23:22;3.67;;;2.50;;
40122;SDS011;25832;45.490;4.912;2023-09-12T00:25:49;4.45;;;2.08;;
40122;SDS011;25832;45.490;4.912;2023-09-12T00:28:16;4.32;;;2.50;;
40122;SDS011;25832;45.490;4.912;2023-09-12T00:30:42;3.00;;;2.10;;
40122;SDS011;25832;45.490;4.912;2023-09-12T00:33:08;5.20;;;2.10;;
40122;SDS011;25832;45.490;4.912;2023-09-12T00:35:34;4.95;;;2.50;;
40122;SDS011;25832;45.490;4.912;2023-09-12T00:37:59;5.75;;;2.38;;
40122;SDS011;25832;45.490;4.912;2023-09-12T00:40:25;3.47;;;2.63;;
40122;SDS011;25832;45.490;4.912;2023-09-12T00:42:51;3.97;;;2.50;;
40122;SDS011;25832;45.490;4.912;2023-09-12T00:45:16;4.20;;;2.42;;
40122;SDS011;25832;45.490;4.912;2023-09-12T00:47:42;3.75;;;2.35;;
40122;SDS011;25832;45.490;4.912;2023-09-12T00:50:08;3.15;;;2.33;;
40122;SDS011;25832;45.490;4.912;2023-09-12T00:52:35;3.38;;;2.60;;
40122;SDS011;25832;45.490;4.912;2023-09-12T00:55:03;2.72;;;2.30;;
40122;SDS011;25832;45.490;4.912;2023-09-12T00:57:29;4.72;;;2.22;;
40122;SDS011;25832;45.490;4.912;2023-09-12T00:59:57;4.05;;;2.63;;
40122;SDS011;25832;45.490;4.912;2023-09-12T01:02:23;5.47;;;2.50;;
40122;SDS011;25832;45.490;4.912;2023-09-12T01:04:49;6.72;;;2.80;;
40122;SDS011;25832;45.490;4.912;2023-09-12T01:07:16;5.25;;;2.55;;
40122;SDS011;25832;45.490;4.912;2023-09-12T01:09:41;12.85;;;3.58;;
40122;SDS011;25832;45.490;4.912;2023-09-12T01:12:08;13.45;;;2.63;;
40122;SDS011;25832;45.490;4.912;2023-09-12T01:14:33;3.50;;;2.35;;
40122;SDS011;25832;45.490;4.912;2023-09-12T01:16:59;8.02;;;2.80;;
40122;SDS011;25832;45.490;4.912;2023-09-12T01:19:28;4.32;;;2.10;;
40122;SDS011;25832;45.490;4.912;2023-09-12T01:28:19;2.58;;;1.70;;
40122;SDS011;25832;45.490;4.912;2023-09-12T01:30:52;2.47;;;1.67;;
40122;SDS011;25832;45.490;4.912;2023-09-12T01:33:19;1.30;;;1.20;;
40122;SDS011;25832;45.490;4.912;2023-09-12T01:35:45;2.55;;;1.38;;
40122;SDS011;25832;45.490;4.912;2023-09-12T01:38:11;1.02;;;0.93;;
40122;SDS011;25832;45.490;4.912;2023-09-12T01:40:59;1.58;;;1.25;;
40122;SDS011;25832;45.490;4.912;2023-09-12T01:43:25;1.25;;;1.15;;
40122;SDS011;25832;45.490;4.912;2023-09-12T01:45:55;0.82;;;0.77;;
40122;SDS011;25832;45.490;4.912;2023-09-12T01:48:24;0.47;;;0.47;;
40122;SDS011;25832;45.490;4.912;2023-09-12T01:50:52;1.58;;;0.93;;
40122;SDS011;25832;45.490;4.912;2023-09-12T01:53:19;0.65;;;0.65;;
40122;SDS011;25832;45.490;4.912;2023-09-12T01:55:45;1.52;;;0.88;;
40122;SDS011;25832;45.490;4.912;2023-09-12T01:58:12;1.52;;;1.40;;
40122;SDS011;25832;45.490;4.912;2023-09-12T02:00:41;1.23;;;0.75;;
40122;SDS011;25832;45.490;4.912;2023-09-12T02:03:07;0.65;;;0.65;;
40122;SDS011;25832;45.490;4.912;2023-09-12T02:05:33;0.57;;;0.57;;
40122;SDS011;25832;45.490;4.912;2023-09-12T02:07:58;1.50;;;1.23;;
40122;SDS011;25832;45.490;4.912;2023-09-12T02:10:26;0.75;;;0.75;;
40122;SDS011;25832;45.490;4.912;2023-09-12T02:12:52;2.45;;;1.38;;
40122;SDS011;25832;45.490;4.912;2023-09-12T02:15:17;1.33;;;0.85;;
40122;SDS011;25832;45.490;4.912;2023-09-12T02:17:43;0.60;;;0.60;;
40122;SDS011;25832;45.490;4.912;2023-09-12T02:20:09;0.98;;;0.68;;
40122;SDS011;25832;45.490;4.912;2023-09-12T02:22:35;1.13;;;1.00;;
40122;SDS011;25832;45.490;4.912;2023-09-12T02:25:02;1.27;;;1.08;;
40122;SDS011;25832;45.490;4.912;2023-09-12T02:27:29;1.00;;;0.93;;
40122;SDS011;25832;45.490;4.912;2023-09-12T02:29:55;1.33;;;1.00;;
40122;SDS011;25832;45.490;4.912;2023-09-12T02:32:21;0.80;;;0.80;;
40122;SDS011;25832;45.490;4.912;2023-09-12T02:34:46;0.85;;;0.75;;
40122;SDS011;25832;45.490;4.912;2023-09-12T02:37:12;0.65;;;0.65;;
40122;SDS011;25832;45.490;4.912;2023-09-12T02:39:38;1.15;;;1.15;;
40122;SDS011;25832;45.490;4.912;2023-09-12T02:42:03;1.17;;;0.93;;
40122;SDS011;25832;45.490;4.912;2023-09-12T02:44:29;0.60;;;0.60;;
40122;SDS011;25832;45.490;4.912;2023-09-12T02:46:55;0.82;;;0.80;;
40122;SDS011;25832;45.490;4.912;2023-09-12T02:49:20;1.20;;;1.00;;
40122;SDS011;25832;45.490;4.912;2023-09-12T02:51:46;0.60;;;0.60;;
40122;SDS011;25832;45.490;4.912;2023-09-12T02:54:12;1.30;;;1.20;;
40122;SDS011;25832;45.490;4.912;2023-09-12T02:56:37;0.95;;;0.93;;
40122;SDS011;25832;45.490;4.912;2023-09-12T02:59:03;2.80;;;0.80;;
40122;SDS011;25832;45.490;4.912;2023-09-12T03:01:30;0.75;;;0.75;;
40122;SDS011;25832;45.490;4.912;2023-09-12T03:03:56;1.38;;;0.93;;
40122;SDS011;25832;45.490;4.912;2023-09-12T03:06:22;0.73;;;0.73;;
40122;SDS011;25832;45.490;4.912;2023-09-12T03:08:48;1.35;;;1.25;;
40122;SDS011;25832;45.490;4.912;2023-09-12T03:11:15;1.23;;;1.15;;
40122;SDS011;25832;45.490;4.912;2023-09-12T03:13:41;1.10;;;1.00;;
40122;SDS011;25832;45.490;4.912;2023-09-12T03:16:13;1.20;;;0.80;;
40122;SDS011;25832;45.490;4.912;2023-09-12T03:18:39;1.60;;;1.50;;
40122;SDS011;25832;45.490;4.912;2023-09-12T03:21:05;1.25;;;0.85;;
40122;SDS011;25832;45.490;4.912;2023-09-12T03:23:31;0.43;;;0.40;;
40122;SDS011;25832;45.490;4.912;2023-09-12T03:26:04;0.93;;;0.88;;
40122;SDS011;25832;45.490;4.912;2023-09-12T03:28:30;1.65;;;0.55;;
40122;SDS011;25832;45.490;4.912;2023-09-12T03:31:11;1.38;;;1.15;;
40122;SDS011;25832;45.490;4.912;2023-09-12T03:33:38;2.50;;;1.73;;
40122;SDS011;25832;45.490;4.912;2023-09-12T03:36:05;0.47;;;0.47;;
40122;SDS011;25832;45.490;4.912;2023-09-12T03:38:31;1.38;;;0.93;;
40122;SDS011;25832;45.490;4.912;2023-09-12T03:40:58;0.60;;;0.60;;
40122;SDS011;25832;45.490;4.912;2023-09-12T03:43:24;2.83;;;1.17;;
40122;SDS011;25832;45.490;4.912;2023-09-12T03:45:50;0.93;;;0.88;;
40122;SDS011;25832;45.490;4.912;2023-09-12T03:48:15;1.10;;;1.00;;
40122;SDS011;25832;45.490;4.912;2023-09-12T03:50:41;1.15;;;0.82;;
40122;SDS011;25832;45.490;4.912;2023-09-12T03:53:06;1.25;;;1.00;;
40122;SDS011;25832;45.490;4.912;2023-09-12T03:55:32;1.73;;;1.08;;
40122;SDS011;25832;45.490;4.912;2023-09-12T03:57:58;1.13;;;0.90;;
40122;SDS011;25832;45.490;4.912;2023-09-12T04:00:23;0.47;;;0.47;;
40122;SDS011;25832;45.490;4.912;2023-09-12T04:02:49;3.65;;;1.20;;
40122;SDS011;25832;45.490;4.912;2023-09-12T04:05:15;2.13;;;1.05;;
40122;SDS011;25832;45.490;4.912;2023-09-12T04:07:41;0.80;;;0.60;;
40122;SDS011;25832;45.490;4.912;2023-09-12T04:10:06;2.03;;;1.33;;
40122;SDS011;25832;45.490;4.912;2023-09-12T04:12:33;0.68;;;0.65;;
40122;SDS011;25832;45.490;4.912;2023-09-12T04:14:58;0.55;;;0.55;;
40122;SDS011;25832;45.490;4.912;2023-09-12T04:17:24;1.02;;;0.93;;
40122;SDS011;25832;45.490;4.912;2023-09-12T04:19:50;0.70;;;0.70;;
40122;SDS011;25832;45.490;4.912;2023-09-12T04:22:15;0.80;;;0.80;;
40122;SDS011;25832;45.490;4.912;2023-09-12T04:24:41;0.73;;;0.73;;
40122;SDS011;25832;45.490;4.912;2023-09-12T04:27:07;1.63;;;0.68;;
40122;SDS011;25832;45.490;4.912;2023-09-12T04:29:33;1.08;;;1.00;;
40122;SDS011;25832;45.490;4.912;2023-09-12T04:32:01;1.83;;;1.45;;
40122;SDS011;25832;45.490;4.912;2023-09-12T04:34:30;1.27;;;1.17;;
40122;SDS011;25832;45.490;4.912;2023-09-12T04:36:55;0.65;;;0.65;;
40122;SDS011;25832;45.490;4.912;2023-09-12T04:39:21;1.50;;;1.20;;
40122;SDS011;25832;45.490;4.912;2023-09-12T04:41:47;1.52;;;1.08;;
40122;SDS011;25832;45.490;4.912;2023-09-12T04:44:13;0.93;;;0.88;;
40122;SDS011;25832;45.490;4.912;2023-09-12T04:46:38;1.05;;;0.95;;
40122;SDS011;25832;45.490;4.912;2023-09-12T04:49:04;1.40;;;0.82;;
40122;SDS011;25832;45.490;4.912;2023-09-12T04:51:30;1.50;;;1.40;;
40122;SDS011;25832;45.490;4.912;2023-09-12T04:53:55;1.48;;;1.10;;
40122;SDS011;25832;45.490;4.912;2023-09-12T04:56:21;1.30;;;1.02;;
40122;SDS011;25832;45.490;4.912;2023-09-12T04:58:49;0.85;;;0.85;;
40122;SDS011;25832;45.490;4.912;2023-09-12T05:01:15;1.33;;;0.90;;
40122;SDS011;25832;45.490;4.912;2023-09-12T05:03:41;0.95;;;0.93;;
40122;SDS011;25832;45.490;4.912;2023-09-12T05:06:07;1.33;;;1.13;;
40122;SDS011;25832;45.490;4.912;2023-09-12T05:08:33;2.33;;;1.58;;
40122;SDS011;25832;45.490;4.912;2023-09-12T05:10:58;2.00;;;1.33;;
40122;SDS011;25832;45.490;4.912;2023-09-12T05:13:24;1.55;;;1.17;;
40122;SDS011;25832;45.490;4.912;2023-09-12T05:15:50;1.77;;;0.70;;
40122;SDS011;25832;45.490;4.912;2023-09-12T05:18:15;1.17;;;1.08;;
40122;SDS011;25832;45.490;4.912;2023-09-12T05:20:41;1.20;;;1.10;;
40122;SDS011;25832;45.490;4.912;2023-09-12T05:23:06;0.73;;;0.73;;
40122;SDS011;25832;45.490;4.912;2023-09-12T05:25:32;1.20;;;1.02;;
40122;SDS011;25832;45.490;4.912;2023-09-12T05:27:58;0.90;;;0.82;;
40122;SDS011;25832;45.490;4.912;2023-09-12T05:30:23;1.20;;;0.93;;
40122;SDS011;25832;45.490;4.912;2023-09-12T05:32:49;0.95;;;0.90;;
40122;SDS011;25832;45.490;4.912;2023-09-12T05:35:15;0.98;;;0.75;;
40122;SDS011;25832;45.490;4.912;2023-09-12T05:37:40;0.68;;;0.68;;
40122;SDS011;25832;45.490;4.912;2023-09-12T05:40:06;0.75;;;0.75;;
40122;SDS011;25832;45.490;4.912;2023-09-12T05:42:32;0.82;;;0.82;;
40122;SDS011;25832;45.490;4.912;2023-09-12T05:44:58;1.23;;;1.08;;
40122;SDS011;25832;45.490;4.912;2023-09-12T05:47:23;1.45;;;1.20;;
40122;SDS011;25832;45.490;4.912;2023-09-12T05:49:49;0.47;;;0.47;;
40122;SDS011;25832;45.490;4.912;2023-09-12T05:52:15;1.38;;;1.27;;
40122;SDS011;25832;45.490;4.912;2023-09-12T05:54:41;0.75;;;0.70;;
40122;SDS011;25832;45.490;4.912;2023-09-12T05:57:07;1.50;;;0.90;;
40122;SDS011;25832;45.490;4.912;2023-09-12T05:59:37;0.40;;;0.40;;
40122;SDS011;25832;45.490;4.912;2023-09-12T06:02:04;4.97;;;1.17;;
40122;SDS011;25832;45.490;4.912;2023-09-12T06:04:31;1.00;;;0.85;;
40122;SDS011;25832;45.490;4.912;2023-09-12T06:06:57;1.40;;;1.05;;
40122;SDS011;25832;45.490;4.912;2023-09-12T06:09:23;1.67;;;1.58;;
40122;SDS011;25832;45.490;4.912;2023-09-12T06:11:48;0.90;;;0.90;;
40122;SDS011;25832;45.490;4.912;2023-09-12T06:14:14;0.73;;;0.73;;
40122;SDS011;25832;45.490;4.912;2023-09-12T06:16:40;0.80;;;0.77;;
40122;SDS011;25832;45.490;4.912;2023-09-12T06:19:05;1.85;;;1.05;;
40122;SDS011;25832;45.490;4.912;2023-09-12T06:21:31;0.90;;;0.90;;
40122;SDS011;25832;45.490;4.912;2023-09-12T06:24:13;0.35;;;0.35;;
40122;SDS011;25832;45.490;4.912;2023-09-12T06:26:40;2.67;;;1.35;;
40122;SDS011;25832;45.490;4.912;2023-09-12T06:29:06;0.47;;;0.47;;
40122;SDS011;25832;45.490;4.912;2023-09-12T06:31:32;2.38;;;0.82;;
40122;SDS011;25832;45.490;4.912;2023-09-12T06:33:58;2.17;;;1.27;;
40122;SDS011;25832;45.490;4.912;2023-09-12T06:36:24;0.60;;;0.60;;
40122;SDS011;25832;45.490;4.912;2023-09-12T06:38:51;1.58;;;1.48;;
40122;SDS011;25832;45.490;4.912;2023-09-12T06:41:19;0.57;;;0.57;;
40122;SDS011;25832;45.490;4.912;2023-09-12T06:43:45;1.27;;;1.17;;
40122;SDS011;25832;45.490;4.912;2023-09-12T06:46:11;0.68;;;0.68;;
40122;SDS011;25832;45.490;4.912;2023-09-12T06:48:37;1.10;;;1.00;;
40122;SDS011;25832;45.490;4.912;2023-09-12T06:51:06;0.90;;;0.85;;
40122;SDS011;25832;45.490;4.912;2023-09-12T06:53:33;2.50;;;1.30;;
40122;SDS011;25832;45.490;4.912;2023-09-12T06:55:59;1.35;;;1.25;;
40122;SDS011;25832;45.490;4.912;2023-09-12T06:58:25;0.30;;;0.30;;
40122;SDS011;25832;45.490;4.912;2023-09-12T07:00:51;0.57;;;0.57;;
40122;SDS011;25832;45.490;4.912;2023-09-12T07:03:16;0.60;;;0.60;;
40122;SDS011;25832;45.490;4.912;2023-09-12T07:05:42;0.70;;;0.70;;
40122;SDS011;25832;45.490;4.912;2023-09-12T07:08:09;1.48;;;1.15;;
40122;SDS011;25832;45.490;4.912;2023-09-12T07:10:35;0.40;;;0.40;;
40122;SDS011;25832;45.490;4.912;2023-09-12T07:13:01;0.50;;;0.50;;
40122;SDS011;25832;45.490;4.912;2023-09-12T07:15:27;0.70;;;0.70;;
40122;SDS011;25832;45.490;4.912;2023-09-12T07:17:53;1.02;;;0.68;;
40122;SDS011;25832;45.490;4.912;2023-09-12T07:20:18;0.90;;;0.90;;
40122;SDS011;25832;45.490;4.912;2023-09-12T07:22:45;0.80;;;0.80;;
40122;SDS011;25832;45.490;4.912;2023-09-12T07:25:11;0.82;;;0.80;;
40122;SDS011;25832;45.490;4.912;2023-09-12T07:27:40;1.05;;;0.85;;
40122;SDS011;25832;45.490;4.912;2023-09-12T07:30:06;1.33;;;1.08;;
40122;SDS011;25832;45.490;4.912;2023-09-12T07:32:32;1.65;;;1.55;;
40122;SDS011;25832;45.490;4.912;2023-09-12T07:34:58;1.17;;;1.05;;
40122;SDS011;25832;45.490;4.912;2023-09-12T07:37:23;3.83;;;1.17;;
40122;SDS011;25832;45.490;4.912;2023-09-12T07:39:49;1.73;;;1.13;;
40122;SDS011;25832;45.490;4.912;2023-09-12T07:42:15;3.85;;;0.82;;
40122;SDS011;25832;45.490;4.912;2023-09-12T07:44:40;0.68;;;0.68;;
40122;SDS011;25832;45.490;4.912;2023-09-12T07:47:07;0.73;;;0.73;;
40122;SDS011;25832;45.490;4.912;2023-09-12T07:49:32;0.60;;;0.60;;
40122;SDS011;25832;45.490;4.912;2023-09-12T07:51:58;0.80;;;0.80;;
40122;SDS011;25832;45.490;4.912;2023-09-12T07:54:24;0.90;;;0.75;;
40122;SDS011;25832;45.490;4.912;2023-09-12T07:56:49;2.60;;;1.13;;
40122;SDS011;25832;45.490;4.912;2023-09-12T07:59:15;1.38;;;0.95;;
40122;SDS011;25832;45.490;4.912;2023-09-12T08:01:40;2.08;;;1.05;;
40122;SDS011;25832;45.490;4.912;2023-09-12T08:04:06;2.22;;;0.80;;
40122;SDS011;25832;45.490;4.912;2023-09-12T08:06:32;1.20;;;1.10;;
40122;SDS011;25832;45.490;4.912;2023-09-12T08:08:58;1.33;;;1.02;;
40122;SDS011;25832;45.490;4.912;2023-09-12T08:11:24;1.02;;;0.95;;
40122;SDS011;25832;45.490;4.912;2023-09-12T08:13:49;1.23;;;1.13;;
40122;SDS011;25832;45.490;4.912;2023-09-12T08:16:15;0.73;;;0.50;;
40122;SDS011;25832;45.490;4.912;2023-09-12T08:18:41;4.28;;;1.13;;
40122;SDS011;25832;45.490;4.912;2023-09-12T08:21:07;0.90;;;0.90;;
40122;SDS011;25832;45.490;4.912;2023-09-12T08:23:33;1.35;;;1.25;;
40122;SDS011;25832;45.490;4.912;2023-09-12T08:25:59;0.73;;;0.57;;
40122;SDS011;25832;45.490;4.912;2023-09-12T08:28:25;0.57;;;0.57;;
40122;SDS011;25832;45.490;4.912;2023-09-12T08:30:51;1.30;;;0.77;;
40122;SDS011;25832;45.490;4.912;2023-09-12T08:33:17;1.17;;;0.90;;
40122;SDS011;25832;45.490;4.912;2023-09-12T08:35:42;0.70;;;0.70;;
40122;SDS011;25832;45.490;4.912;2023-09-12T08:38:08;0.70;;;0.70;;
40122;SDS011;25832;45.490;4.912;2023-09-12T08:40:34;0.73;;;0.73;;
40122;SDS011;25832;45.490;4.912;2023-09-12T08:43:00;0.70;;;0.70;;
40122;SDS011;25832;45.490;4.912;2023-09-12T08:45:28;0.68;;;0.68;;
40122;SDS011;25832;45.490;4.912;2023-09-12T08:47:55;0.90;;;0.90;;
40122;SDS011;25832;45.490;4.912;2023-09-12T08:50:24;0.70;;;0.70;;
40122;SDS011;25832;45.490;4.912;2023-09-12T08:52:50;0.73;;;0.73;;
40122;SDS011;25832;45.490;4.912;2023-09-12T08:55:16;0.60;;;0.60;;
40122;SDS011;25832;45.490;4.912;2023-09-12T08:57:43;0.70;;;0.70;;
40122;SDS011;25832;45.490;4.912;2023-09-12T09:00:12;3.03;;;1.17;;
40122;SDS011;25832;45.490;4.912;2023-09-12T09:02:42;1.13;;;0.60;;
40122;SDS011;25832;45.490;4.912;2023-09-12T09:05:09;1.27;;;1.15;;
40122;SDS011;25832;45.490;4.912;2023-09-12T09:07:40;0.70;;;0.70;;
40122;SDS011;25832;45.490;4.912;2023-09-12T09:10:08;1.45;;;1.35;;
40122;SDS011;25832;45.490;4.912;2023-09-12T09:12:42;0.73;;;0.73;;
40122;SDS011;25832;45.490;4.912;2023-09-12T09:15:23;0.83;;;0.83;;
40122;SDS011;25832;45.490;4.912;2023-09-12T09:17:53;0.73;;;0.73;;
40122;SDS011;25832;45.490;4.912;2023-09-12T09:20:30;0.40;;;0.40;;
40122;SDS011;25832;45.490;4.912;2023-09-12T09:22:58;1.10;;;0.63;;
40122;SDS011;25832;45.490;4.912;2023-09-12T09:25:25;0.68;;;0.68;;
40122;SDS011;25832;45.490;4.912;2023-09-12T09:27:51;0.70;;;0.70;;
40122;SDS011;25832;45.490;4.912;2023-09-12T09:30:16;0.98;;;0.98;;
40122;SDS011;25832;45.490;4.912;2023-09-12T09:32:43;1.33;;;1.23;;
40122;SDS011;25832;45.490;4.912;2023-09-12T09:35:10;0.68;;;0.68;;
40122;SDS011;25832;45.490;4.912;2023-09-12T09:37:36;0.50;;;0.50;;
40122;SDS011;25832;45.490;4.912;2023-09-12T09:40:04;0.70;;;0.60;;
40122;SDS011;25832;45.490;4.912;2023-09-12T09:42:35;0.90;;;0.85;;
40122;SDS011;25832;45.490;4.912;2023-09-12T09:45:00;1.00;;;1.00;;
40122;SDS011;25832;45.490;4.912;2023-09-12T09:47:27;0.90;;;0.90;;
40122;SDS011;25832;45.490;4.912;2023-09-12T09:49:53;1.08;;;1.02;;
40122;SDS011;25832;45.490;4.912;2023-09-12T09:52:26;0.75;;;0.75;;
40122;SDS011;25832;45.490;4.912;2023-09-12T09:54:52;1.98;;;1.13;;
40122;SDS011;25832;45.490;4.912;2023-09-12T09:57:18;0.60;;;0.60;;
40122;SDS011;25832;45.490;4.912;2023-09-12T09:59:48;0.40;;;0.40;;
40122;SDS011;25832;45.490;4.912;2023-09-12T10:02:16;0.73;;;0.55;;
40122;SDS011;25832;45.490;4.912;2023-09-12T10:04:46;0.82;;;0.82;;
40122;SDS011;25832;45.490;4.912;2023-09-12T10:07:13;1.40;;;0.98;;
40122;SDS011;25832;45.490;4.912;2023-09-12T10:09:39;0.57;;;0.57;;
40122;SDS011;25832;45.490;4.912;2023-09-12T10:12:07;1.15;;;1.00;;
40122;SDS011;25832;45.490;4.912;2023-09-12T10:14:33;1.38;;;1.30;;
40122;SDS011;25832;45.490;4.912;2023-09-12T10:17:01;1.02;;;0.90;;
40122;SDS011;25832;45.490;4.912;2023-09-12T10:24:42;1.45;;;1.33;;
40122;SDS011;25832;45.490;4.912;2023-09-12T10:27:10;2.42;;;1.45;;
40122;SDS011;25832;45.490;4.912;2023-09-12T10:29:37;4.60;;;1.45;;
40122;SDS011;25832;45.490;4.912;2023-09-12T10:32:03;1.42;;;1.40;;
40122;SDS011;25832;45.490;4.912;2023-09-12T10:34:29;0.65;;;0.65;;
40122;SDS011;25832;45.490;4.912;2023-09-12T10:36:57;2.25;;;0.90;;
40122;SDS011;25832;45.490;4.912;2023-09-12T10:39:24;0.82;;;0.82;;
40122;SDS011;25832;45.490;4.912;2023-09-12T10:41:52;2.03;;;1.35;;
40122;SDS011;25832;45.490;4.912;2023-09-12T10:44:20;1.42;;;1.33;;
40122;SDS011;25832;45.490;4.912;2023-09-12T10:46:46;0.73;;;0.73;;
40122;SDS011;25832;45.490;4.912;2023-09-12T10:49:14;3.95;;;1.65;;
40122;SDS011;25832;45.490;4.912;2023-09-12T10:51:41;0.95;;;0.95;;
40122;SDS011;25832;45.490;4.912;2023-09-12T10:54:07;0.93;;;0.93;;
40122;SDS011;25832;45.490;4.912;2023-09-12T10:56:34;2.25;;;1.33;;
40122;SDS011;25832;45.490;4.912;2023-09-12T11:01:35;3.15;;;1.55;;
40122;SDS011;25832;45.490;4.912;2023-09-12T11:06:48;0.90;;;0.90;;
40122;SDS011;25832;45.490;4.912;2023-09-12T11:09:15;1.35;;;1.25;;
40122;SDS011;25832;45.490;4.912;2023-09-12T11:11:43;5.43;;;1.58;;
40122;SDS011;25832;45.490;4.912;2023-09-12T11:14:11;1.35;;;1.25;;
40122;SDS011;25832;45.490;4.912;2023-09-12T11:16:38;1.48;;;1.05;;
40122;SDS011;25832;45.490;4.912;2023-09-12T11:21:49;5.88;;;1.02;;
40122;SDS011;25832;45.490;4.912;2023-09-12T11:24:16;1.20;;;1.10;;
40122;SDS011;25832;45.490;4.912;2023-09-12T11:27:01;1.27;;;1.15;;
40122;SDS011;25832;45.490;4.912;2023-09-12T11:29:37;4.65;;;1.35;;
40122;SDS011;25832;45.490;4.912;2023-09-12T11:32:04;1.50;;;1.10;;
40122;SDS011;25832;45.490;4.912;2023-09-12T11:34:38;2.33;;;1.10;;
40122;SDS011;25832;45.490;4.912;2023-09-12T11:37:06;1.48;;;1.25;;
40122;SDS011;25832;45.490;4.912;2023-09-12T11:39:33;1.05;;;0.95;;
40122;SDS011;25832;45.490;4.912;2023-09-12T11:42:01;3.20;;;1.50;;
40122;SDS011;25832;45.490;4.912;2023-09-12T11:44:29;0.82;;;0.82;;
40122;SDS011;25832;45.490;4.912;2023-09-12T11:46:56;1.67;;;1.58;;
40122;SDS011;25832;45.490;4.912;2023-09-12T11:49:28;2.00;;;1.80;;
40122;SDS011;25832;45.490;4.912;2023-09-12T11:52:00;4.50;;;0.98;;
40122;SDS011;25832;45.490;4.912;2023-09-12T11:54:27;0.93;;;0.88;;
40122;SDS011;25832;45.490;4.912;2023-09-12T11:56:56;2.33;;;2.13;;
40122;SDS011;25832;45.490;4.912;2023-09-12T11:59:24;3.05;;;2.42;;
40122;SDS011;25832;45.490;4.912;2023-09-12T12:02:05;1.33;;;1.23;;
40122;SDS011;25832;45.490;4.912;2023-09-12T12:04:31;1.48;;;1.38;;
40122;SDS011;25832;45.490;4.912;2023-09-12T12:06:57;1.80;;;1.65;;
40122;SDS011;25832;45.490;4.912;2023-09-12T12:09:23;1.45;;;1.35;;
40122;SDS011;25832;45.490;4.912;2023-09-12T12:11:49;1.90;;;1.17;;
40122;SDS011;25832;45.490;4.912;2023-09-12T12:14:15;1.08;;;1.08;;
40122;SDS011;25832;45.490;4.912;2023-09-12T12:16:44;1.60;;;1.33;;
40122;SDS011;25832;45.490;4.912;2023-09-12T12:19:12;1.20;;;1.20;;
40122;SDS011;25832;45.490;4.912;2023-09-12T12:21:39;4.82;;;1.02;;
40122;SDS011;25832;45.490;4.912;2023-09-12T12:24:07;0.80;;;0.80;;
40122;SDS011;25832;45.490;4.912;2023-09-12T12:26:35;1.17;;;1.10;;
40122;SDS011;25832;45.490;4.912;2023-09-12T12:29:01;1.50;;;1.38;;
40122;SDS011;25832;45.490;4.912;2023-09-12T12:31:27;4.15;;;1.10;;
40122;SDS011;25832;45.490;4.912;2023-09-12T13:03:57;2.75;;;1.80;;
40122;SDS011;25832;45.490;4.912;2023-09-12T13:06:23;4.35;;;1.77;;
40122;SDS011;25832;45.490;4.912;2023-09-12T13:08:51;2.92;;;1.73;;
40122;SDS011;25832;45.490;4.912;2023-09-12T13:11:16;2.08;;;1.73;;
40122;SDS011;25832;45.490;4.912;2023-09-12T13:13:42;1.73;;;1.48;;
40122;SDS011;25832;45.490;4.912;2023-09-12T13:16:09;1.55;;;1.10;;
40122;SDS011;25832;45.490;4.912;2023-09-12T13:18:39;0.98;;;0.95;;
40122;SDS011;25832;45.490;4.912;2023-09-12T13:21:05;1.23;;;1.13;;
40122;SDS011;25832;45.490;4.912;2023-09-12T13:23:33;1.00;;;0.88;;
40122;SDS011;25832;45.490;4.912;2023-09-12T13:26:00;2.72;;;1.65;;
40122;SDS011;25832;45.490;4.912;2023-09-12T13:28:26;1.35;;;1.23;;
40122;SDS011;25832;45.490;4.912;2023-09-12T13:30:52;1.08;;;1.00;;
40122;SDS011;25832;45.490;4.912;2023-09-12T13:33:18;1.50;;;1.45;;
40122;SDS011;25832;45.490;4.912;2023-09-12T13:35:44;1.20;;;1.08;;
40122;SDS011;25832;45.490;4.912;2023-09-12T13:38:09;1.08;;;1.05;;
40122;SDS011;25832;45.490;4.912;2023-09-12T13:40:38;4.00;;;1.52;;
40122;SDS011;25832;45.490;4.912;2023-09-12T13:43:05;0.75;;;0.75;;
40122;SDS011;25832;45.490;4.912;2023-09-12T13:45:31;1.55;;;1.42;;
40122;SDS011;25832;45.490;4.912;2023-09-12T13:47:57;1.38;;;1.27;;
40122;SDS011;25832;45.490;4.912;2023-09-12T13:50:24;1.48;;;1.23;;
40122;SDS011;25832;45.490;4.912;2023-09-12T13:52:50;1.02;;;1.02;;
40122;SDS011;25832;45.490;4.912;2023-09-12T13:55:18;1.42;;;1.33;;
40122;SDS011;25832;45.490;4.912;2023-09-12T13:57:43;3.42;;;1.48;;
40122;SDS011;25832;45.490;4.912;2023-09-12T14:00:09;1.80;;;1.67;;
40122;SDS011;25832;45.490;4.912;2023-09-12T14:02:35;1.42;;;1.33;;
40122;SDS011;25832;45.490;4.912;2023-09-12T14:05:01;1.63;;;1.30;;
40122;SDS011;25832;45.490;4.912;2023-09-12T14:07:26;1.88;;;1.65;;
40122;SDS011;25832;45.490;4.912;2023-09-12T14:09:52;1.38;;;1.27;;
40122;SDS011;25832;45.490;4.912;2023-09-12T14:12:21;2.13;;;1.58;;
40122;SDS011;25832;45.490;4.912;2023-09-12T14:14:47;4.70;;;1.73;;
40122;SDS011;25832;45.490;4.912;2023-09-12T14:17:13;2.72;;;2.08;;
40122;SDS011;25832;45.490;4.912;2023-09-12T14:19:39;1.40;;;1.30;;
40122;SDS011;25832;45.490;4.912;2023-09-12T14:22:05;6.75;;;1.23;;
40122;SDS011;25832;45.490;4.912;2023-09-12T14:24:30;2.33;;;2.03;;
40122;SDS011;25832;45.490;4.912;2023-09-12T14:26:56;7.82;;;1.95;;
40122;SDS011;25832;45.490;4.912;2023-09-12T14:29:22;2.70;;;1.67;;
40122;SDS011;25832;45.490;4.912;2023-09-12T14:31:49;2.28;;;1.27;;
40122;SDS011;25832;45.490;4.912;2023-09-12T14:34:19;5.28;;;2.15;;
40122;SDS011;25832;45.490;4.912;2023-09-12T14:36:44;1.55;;;1.45;;
40122;SDS011;25832;45.490;4.912;2023-09-12T14:39:13;2.35;;;1.45;;
40122;SDS011;25832;45.490;4.912;2023-09-12T14:41:40;1.95;;;1.73;;
40122;SDS011;25832;45.490;4.912;2023-09-12T14:44:05;1.73;;;1.63;;
40122;SDS011;25832;45.490;4.912;2023-09-12T14:46:31;2.25;;;1.23;;
40122;SDS011;25832;45.490;4.912;2023-09-12T14:48:56;1.60;;;1.50;;
40122;SDS011;25832;45.490;4.912;2023-09-12T14:51:23;2.08;;;1.73;;
40122;SDS011;25832;45.490;4.912;2023-09-12T14:53:48;1.50;;;1.40;;
40122;SDS011;25832;45.490;4.912;2023-09-12T14:56:15;3.47;;;2.22;;
40122;SDS011;25832;45.490;4.912;2023-09-12T14:58:40;2.55;;;1.98;;
40122;SDS011;25832;45.490;4.912;2023-09-12T15:01:06;1.42;;;1.33;;
40122;SDS011;25832;45.490;4.912;2023-09-12T15:03:32;1.45;;;1.30;;
40122;SDS011;25832;45.490;4.912;2023-09-12T15:06:04;1.42;;;1.33;;
40122;SDS011;25832;45.490;4.912;2023-09-12T15:08:30;1.45;;;1.00;;
40122;SDS011;25832;45.490;4.912;2023-09-12T15:10:55;1.90;;;1.55;;
40122;SDS011;25832;45.490;4.912;2023-09-12T15:13:21;2.30;;;1.80;;
40122;SDS011;25832;45.490;4.912;2023-09-12T15:15:46;2.40;;;1.25;;
40122;SDS011;25832;45.490;4.912;2023-09-12T15:18:12;1.33;;;1.23;;
40122;SDS011;25832;45.490;4.912;2023-09-12T15:20:38;2.92;;;1.60;;
40122;SDS011;25832;45.490;4.912;2023-09-12T15:23:03;2.35;;;1.98;;
40122;SDS011;25832;45.490;4.912;2023-09-12T15:25:30;2.67;;;1.98;;
40122;SDS011;25832;45.490;4.912;2023-09-12T15:27:57;3.47;;;3.10;;
40122;SDS011;25832;45.490;4.912;2023-09-12T15:30:23;3.33;;;2.15;;
40122;SDS011;25832;45.490;4.912;2023-09-12T15:32:49;1.90;;;1.80;;
40122;SDS011;25832;45.490;4.912;2023-09-12T15:35:14;3.15;;;1.45;;